Ortonville, Michigan
Current Conditions -  °F | °C
As of 5:53 AM on Saturday 25 Oct 2014 (Local Time) from KPTK Reporting Station
Haze Haze  
Wind Chill: 47°   Ceiling: 8500
Heat Index: 47°   Visibility: 4mi
Dew Point: 45°   Wind: 3mph
Humidity: 93%   Direction: 240°WSW
Pressure: 29.85"   Gusts: NA
Location:  42.85°N, 83.44°W
Report Text: KPTK 250953Z 24003KT 4SM BR BKN085 08/07 A2985 RMK AO2 SLP110 FIRST AUGMENTED OBS OF THE DAY T00830072
Loading
Personal Weather Stations






























Interactive Weather Map
Tropical Storm Tracking
New forecast layout! Learn more

10-Day Weather Forecast

Advertisements
Track Severe Weather on mobile